Portada
METAR-TAF:

METAR-TAF

Aeroports :

Aeroport d'Essaouira-Mogador

Essaouira, Marroc

latitud: 31-31N, longitud: 009-47W, altitud: 15 m

Observació

L'informe es va fer fa 26 minuts, a les 11:00 UTC
Vent 8 kt del Oest
Temperatura 22°C
Humitat 69%
Pressió 1012 hPa
Visibilitat: 8000 m
Cel ennuvolat a una alçada de 1600 ft

METAR: GMMI 301100Z 26008KT 8000 BKN016 22/16 Q1012 NOSIG

Hora: 12:26 (11:26 UTC)

Pronòstic

L'informe es va fer fa 6 hores i 26 minuts, a les 05:00 UTC
Pronòstic vàlid del 30 a les 06 UTC al 31 a les 12 UTC
Vent 2 kt amb direcció variable
Visibilitat: 6000 m
Núvols disperses a una alçada de 1000 ft

TAF: GMMI 300500Z 3006/3112 VRB02KT 6000 SCT010

Observacions i pronòstics meteorològics de més de 4000 aeroports (METAR i TAF).

Les estacions disponibles són els punts grocs i vermells al mapa.

Posi el ratolí al punt desitjat per veure el nom de l'estació.

Feu clic per veure les observacions i els pronòstics meteorològics.

Per canviar el mapa: feu clic els botons verds amb una creu de color negre per apropar; al botó verd amb un guió per allunyar la imatge; o en les fletxes verdes per a mapes adjacents.


METAR-TAF: